createdAt,value
2018-09-19T00:00:25.298Z,90
2018-09-19T00:05:25.686Z,90
2018-09-19T00:10:25.244Z,90
2018-09-19T00:15:25.732Z,90
2018-09-19T00:20:25.325Z,90
2018-09-19T00:25:25.922Z,91
2018-09-19T00:30:25.525Z,91
2018-09-19T00:35:26.158Z,91
2018-09-19T00:40:25.759Z,91
2018-09-19T00:45:25.226Z,91
2018-09-19T00:50:25.801Z,91
2018-09-19T00:55:25.281Z,91
2018-09-19T01:00:25.790Z,91
2018-09-19T01:05:26.081Z,91
2018-09-19T01:10:25.591Z,91
2018-09-19T01:15:26.219Z,91
2018-09-19T01:20:25.792Z,91
2018-09-19T01:25:25.375Z,91
2018-09-19T01:30:26.094Z,91
2018-09-19T01:35:25.937Z,91
2018-09-19T01:40:25.519Z,91
2018-09-19T01:45:26.057Z,91
2018-09-19T01:50:25.678Z,91
2018-09-19T01:55:26.362Z,91
2018-09-19T02:00:26.069Z,91
2018-09-19T02:05:25.753Z,91
2018-09-19T02:10:25.416Z,91
2018-09-19T02:15:26.237Z,91
2018-09-19T02:20:25.763Z,91
2018-09-19T02:25:26.277Z,91
2018-09-19T02:30:25.820Z,91
2018-09-19T02:35:26.302Z,92
2018-09-19T02:40:25.844Z,92
2018-09-19T02:45:25.416Z,91
2018-09-19T02:50:25.966Z,91
2018-09-19T02:55:26.124Z,92
2018-09-19T03:00:25.666Z,92
2018-09-19T03:05:25.697Z,92
2018-09-19T03:10:26.359Z,92
2018-09-19T03:15:25.898Z,92
2018-09-19T03:20:25.368Z,92
2018-09-19T03:25:25.827Z,92
2018-09-19T03:30:25.394Z,92
2018-09-19T03:35:25.985Z,92
2018-09-19T03:40:25.602Z,92
2018-09-19T03:45:26.093Z,92
2018-09-19T03:50:25.743Z,92
2018-09-19T03:55:26.359Z,92
2018-09-19T04:00:26.018Z,92
2018-09-19T04:05:25.549Z,92
2018-09-19T04:10:26.207Z,92
2018-09-19T04:15:25.871Z,92
2018-09-19T04:20:26.373Z,92
2018-09-19T04:25:25.940Z,93
2018-09-19T04:30:25.686Z,93
2018-09-19T04:35:26.240Z,93
2018-09-19T04:40:25.756Z,93
2018-09-19T04:45:26.393Z,93
2018-09-19T04:50:26.070Z,93
2018-09-19T04:55:25.619Z,93
2018-09-19T05:00:26.230Z,93
2018-09-19T05:05:26.483Z,93
2018-09-19T05:10:26.177Z,93
2018-09-19T05:15:25.747Z,93
2018-09-19T05:20:26.313Z,93
2018-09-19T05:25:25.858Z,93
2018-09-19T05:30:26.381Z,93
2018-09-19T05:35:25.873Z,94
2018-09-19T05:40:26.411Z,94
2018-09-19T05:45:25.956Z,94
2018-09-19T05:50:26.465Z,94
2018-09-19T05:55:26.034Z,95
2018-09-19T06:00:25.753Z,95
2018-09-19T06:05:26.611Z,95
2018-09-19T06:10:26.364Z,95
2018-09-19T06:15:25.869Z,96
2018-09-19T06:20:25.720Z,96
2018-09-19T06:25:26.196Z,97
2018-09-19T06:30:25.993Z,97
2018-09-19T06:35:26.106Z,97
2018-09-19T06:40:25.797Z,97
2018-09-19T06:45:26.428Z,97
2018-09-19T06:50:25.964Z,97
2018-09-19T06:55:26.542Z,97
2018-09-19T07:00:26.167Z,97
2018-09-19T07:05:26.526Z,97
2018-09-19T07:10:26.152Z,97
2018-09-19T07:15:25.825Z,98
2018-09-19T07:20:26.625Z,98
2018-09-19T07:25:26.124Z,98
2018-09-19T07:30:25.822Z,98
2018-09-19T07:35:26.344Z,97
2018-09-19T07:40:25.920Z,97
2018-09-19T07:45:26.506Z,97
2018-09-19T07:50:26.122Z,97
2018-09-19T07:55:26.643Z,95
2018-09-19T08:00:26.377Z,95
2018-09-19T08:05:25.781Z,87
2018-09-19T08:10:26.339Z,87
2018-09-19T08:15:25.888Z,80
2018-09-19T08:20:26.536Z,80
2018-09-19T08:25:26.100Z,77
2018-09-19T08:30:25.855Z,77
2018-09-19T08:35:26.333Z,76
2018-09-19T08:40:25.916Z,76
2018-09-19T08:45:26.516Z,73
2018-09-19T08:50:26.065Z,73
2018-09-19T08:55:26.653Z,71
2018-09-19T09:00:26.306Z,71
2018-09-19T09:05:26.697Z,70
2018-09-19T09:10:26.352Z,70
2018-09-19T09:15:25.966Z,68
2018-09-19T09:20:26.423Z,68
2018-09-19T09:25:25.939Z,68
2018-09-19T09:30:26.539Z,68
2018-09-19T09:35:26.551Z,66
2018-09-19T09:40:26.225Z,66
2018-09-19T09:45:25.900Z,65
2018-09-19T09:50:26.631Z,65
2018-09-19T09:55:26.308Z,64
2018-09-19T10:00:26.100Z,64
2018-09-19T10:05:26.123Z,63
2018-09-19T10:10:26.677Z,63
2018-09-19T10:15:26.281Z,60
2018-09-19T10:20:25.836Z,60
2018-09-19T10:25:26.410Z,59
2018-09-19T10:30:25.946Z,59
2018-09-19T10:35:26.563Z,58
2018-09-19T10:40:26.178Z,58
2018-09-19T10:45:26.778Z,57
2018-09-19T10:50:26.343Z,57
2018-09-19T10:55:26.877Z,56
2018-09-19T11:00:26.559Z,56
2018-09-19T11:05:25.903Z,56
2018-09-19T11:10:26.609Z,56
2018-09-19T11:15:26.156Z,53
2018-09-19T11:20:26.724Z,53
2018-09-19T11:25:26.386Z,53
2018-09-19T11:30:26.944Z,53
2018-09-19T11:35:26.700Z,52
2018-09-19T11:40:26.302Z,52
2018-09-19T11:45:26.853Z,52
2018-09-19T11:50:26.417Z,52
2018-09-19T11:55:25.897Z,52
2018-09-19T12:00:26.551Z,52
2018-09-19T12:05:26.337Z,52
2018-09-19T12:10:26.862Z,52
2018-09-19T12:15:26.451Z,49
2018-09-19T12:20:25.983Z,49
2018-09-19T12:25:26.286Z,50
2018-09-19T12:30:26.831Z,50
2018-09-19T12:35:26.165Z,50
2018-09-19T12:40:26.720Z,50
2018-09-19T12:45:26.276Z,47
2018-09-19T12:50:26.814Z,47
2018-09-19T12:55:26.388Z,47
2018-09-19T13:00:26.314Z,47
2018-09-19T13:05:26.258Z,48
2018-09-19T13:10:26.985Z,48
2018-09-19T13:15:26.579Z,47
2018-09-19T13:20:26.116Z,47
2018-09-19T13:25:26.586Z,48
2018-09-19T13:30:26.301Z,48
2018-09-19T13:35:26.803Z,46
2018-09-19T13:40:26.339Z,46
2018-09-19T13:45:26.921Z,48
2018-09-19T13:50:26.652Z,48
2018-09-19T13:55:26.194Z,47
2018-09-19T14:00:26.861Z,47
2018-09-19T14:05:26.587Z,48
2018-09-19T14:10:26.996Z,48
2018-09-19T14:15:26.628Z,46
2018-09-19T14:20:26.238Z,46
2018-09-19T14:25:26.778Z,47
2018-09-19T14:30:26.411Z,47
2018-09-19T14:35:27.110Z,47
2018-09-19T14:40:26.699Z,47
2018-09-19T14:45:26.224Z,46
2018-09-19T14:50:26.728Z,46
2018-09-19T14:55:26.303Z,47
2018-09-19T15:00:27.034Z,47
2018-09-19T15:05:26.676Z,47
2018-09-19T15:10:26.311Z,47
2018-09-19T15:15:26.835Z,47
2018-09-19T15:20:26.357Z,47
2018-09-19T15:25:27.119Z,48
2018-09-19T15:30:26.830Z,48
2018-09-19T15:35:26.406Z,48
2018-09-19T15:40:26.912Z,48
2018-09-19T15:45:26.525Z,49
2018-09-19T15:50:27.070Z,49
2018-09-19T15:55:26.693Z,50
2018-09-19T16:00:26.434Z,50
2018-09-19T16:05:26.479Z,51
2018-09-19T16:10:26.461Z,51
2018-09-19T16:15:27.056Z,52
2018-09-19T16:20:26.613Z,52
2018-09-19T16:25:27.117Z,52
2018-09-19T16:30:26.772Z,52
2018-09-19T16:35:26.273Z,52
2018-09-19T16:40:26.841Z,52
2018-09-19T16:45:26.470Z,53
2018-09-19T16:50:27.026Z,53
2018-09-19T16:55:26.601Z,54
2018-09-19T17:00:27.273Z,54
2018-09-19T17:05:26.879Z,55
2018-09-19T17:10:26.484Z,55
2018-09-19T17:15:27.202Z,55
2018-09-19T17:20:26.888Z,55
2018-09-19T17:25:26.381Z,56
2018-09-19T17:30:26.996Z,56
2018-09-19T17:35:26.661Z,57
2018-09-19T17:40:27.237Z,57
2018-09-19T17:45:26.776Z,58
2018-09-19T17:50:27.330Z,58
2018-09-19T17:55:26.813Z,60
2018-09-19T18:00:26.465Z,60
2018-09-19T18:05:27.008Z,61
2018-09-19T18:10:27.118Z,61
2018-09-19T18:15:26.714Z,62
2018-09-19T18:20:27.292Z,62
2018-09-19T18:25:26.797Z,64
2018-09-19T18:30:27.541Z,64
2018-09-19T18:35:27.220Z,65
2018-09-19T18:40:26.947Z,65
2018-09-19T18:45:26.585Z,66
2018-09-19T18:50:27.242Z,66
2018-09-19T18:55:26.830Z,67
2018-09-19T19:00:27.397Z,67
2018-09-19T19:05:27.241Z,69
2018-09-19T19:10:27.088Z,69
2018-09-19T19:15:26.645Z,70
2018-09-19T19:20:27.204Z,70
2018-09-19T19:25:26.723Z,72
2018-09-19T19:30:26.919Z,72
2018-09-19T19:35:26.561Z,73
2018-09-19T19:40:27.067Z,73
2018-09-19T19:45:26.603Z,75
2018-09-19T19:50:27.233Z,75
2018-09-19T19:55:26.806Z,76
2018-09-19T20:00:27.366Z,76
2018-09-19T20:05:26.924Z,76
2018-09-19T20:10:27.246Z,76
2018-09-19T20:15:26.852Z,77
2018-09-19T20:20:27.396Z,77
2018-09-19T20:25:26.928Z,78
2018-09-19T20:30:26.628Z,78
2018-09-19T20:35:27.182Z,78
2018-09-19T20:40:26.727Z,78
2018-09-19T20:45:27.286Z,77
2018-09-19T20:50:26.892Z,77
2018-09-19T20:55:27.412Z,77
2018-09-19T21:00:27.024Z,77
2018-09-19T21:05:27.610Z,77
2018-09-19T21:10:27.360Z,77
2018-09-19T21:15:27.056Z,77
2018-09-19T21:20:26.672Z,77
2018-09-19T21:25:27.179Z,78
2018-09-19T21:30:26.884Z,78
2018-09-19T21:35:27.409Z,77
2018-09-19T21:40:26.932Z,77
2018-09-19T21:45:27.538Z,77
2018-09-19T21:50:27.081Z,77
2018-09-19T21:55:27.620Z,77
2018-09-19T22:00:27.492Z,77
2018-09-19T22:05:26.983Z,76
2018-09-19T22:10:26.883Z,76
2018-09-19T22:15:27.720Z,74
2018-09-19T22:20:27.277Z,74
2018-09-19T22:25:27.137Z,73
2018-09-19T22:30:26.765Z,73
2018-09-19T22:35:27.348Z,71
2018-09-19T22:40:27.318Z,71
2018-09-19T22:45:26.858Z,70
2018-09-19T22:50:27.418Z,70
2018-09-19T22:55:26.914Z,69
2018-09-19T23:00:27.447Z,69
2018-09-19T23:05:27.180Z,69
2018-09-19T23:10:27.478Z,69
2018-09-19T23:15:26.972Z,69
2018-09-19T23:20:27.390Z,69
2018-09-19T23:25:26.927Z,69
2018-09-19T23:30:27.505Z,69
2018-09-19T23:35:27.044Z,70
2018-09-19T23:40:27.540Z,70
2018-09-19T23:45:27.099Z,71
2018-09-19T23:50:27.603Z,71
2018-09-19T23:55:27.166Z,72
